ADDS TAF Data INFO
IDs: Format: Raw Decoded Include METARs

Data at: 1049 UTC 24 Apr 2018

TAF for:KAUS (Austin/Bergstrom Int, TX, US) issued at 0528 UTC 24 Apr 2018
Text:KAUS 240528Z 2406/2512 VRB03KT P6SM FEW250
Forecast period:0600 to 1500 UTC 24 April 2018
Forecast type:FROM: standard forecast or significant change
Winds:variable direction winds at 3 MPH (3 knots; 1.5 m/s)
Visibility:6 or more sm (10+ km)
Ceiling:at least 12,000 feet AGL
Clouds: few clouds at 25000 feet AGL
Text:FM241500 14007KT P6SM FEW040
Forecast period:1500 UTC 24 April 2018 to 1200 UTC 25 April 2018
Forecast type:FROM: standard forecast or significant change
Winds:from the SE (140 degrees) at 8 MPH (7 knots; 3.6 m/s)
Visibility:6 or more sm (10+ km)
Ceiling:at least 12,000 feet AGL
Clouds: few clouds at 4000 feet AGL